Baudette, MN

16:08 CST le 23 novembre 2014 (GMT -0600)
Baudette International | Change Station
CLOSE
Current Station
Aéroport
Location: Baudette,
Altitude: 1083 ft
Stations météo à proximité

Alt. 1083 ft 48.73 °N, 94.61 °W | Updated 15 minutes ago

Couvert
Couvert
34 ° F
Paraît 34 ° F
N
0
Vent Variable Vent de Nord

Aujourd'hui
Haut(e) -- | Bas -- ° F
--% Risque de précip.
Hier
Haut(e) -- | Bas -- ° F
Precip. -- pouce
7:39 AM 4:31 PM
Nouvelle lune, 2% visible
Pression 29.42 pouce
Visibilité 1.2 Miles terrestres
Nuages Nuageux 700 ft
Couvert 2600 ft
Point de rosée 33 ° F
Humidité 96%
Précipitations 0.02 pouce
Profondeur de la couche neigeuse Non disponible.
UV 0 sur 12
Pollen .10 sur 12
Qualité de l'air Non disponible.
Flu Activity Non disponible.
METAR KBDE 232153Z AUTO 00000KT 1 1/4SM BR BKN007 OVC026 01/01 A2938 RMK AO2 RAE2059B02E43UPB2059E25B43E47 SLP962 P0001 T00110006 TSNO

More Conditions Fewer Conditions

Pression 29.42 pouce
Visibilité 1.2 Miles terrestres
Nuages Nuageux 700 ft
Couvert 2600 ft
Point de rosée 33 ° F
Humidité 96%
Précipitations 0.02 pouce
Profondeur de la couche neigeuse Non disponible.
UV 0 sur 12
Pollen .10 sur 12
Qualité de l'air Non disponible.
Flu Activity Non disponible.
METAR KBDE 232153Z AUTO 00000KT 1 1/4SM BR BKN007 OVC026 01/01 A2938 RMK AO2 RAE2059B02E43UPB2059E25B43E47 SLP962 P0001 T00110006 TSNO

More Conditions Fewer Conditions

10-Day Weather Forecast

Almanac

Astronomie

Nov. 23, 2014 Lever Coucher
Temps réel
Crépuscule civil
Crépuscule nautique
Crépuscule astronomique
Lune
Durée de lumière visible
Longueur du jour
Tomorrow will be .
, % of the Moon is Illuminated

Extrêmes aujourd'hui

State Highs State Lows

Community

WunderPhotos

Upload Photos

1,773,183 Photos téléchargées !

WunderBlogs® & News

Nearby

Qualité de l'air

  Qualité de l'air Indice de la qualité de l'air Polluant
Not available.

Épaisseur de neige

Station Depth Altitude

Activité sismique

Ville Distance Mag. Time & Date
Minimum magnitude displayed is 2.5.

Températures des eaux côtières

Lieu Température

Stations météo à proximité